sensor_id;sensor_type;location;lat;lon;timestamp;P1;durP1;ratioP1;P2;durP2;ratioP2
6928;SDS011;3504;52.616;13.238;2024-02-23T00:04:39;1.43;;;1.33;;
6928;SDS011;3504;52.616;13.238;2024-02-23T00:09:39;1.10;;;1.10;;
6928;SDS011;3504;52.616;13.238;2024-02-23T00:14:40;1.27;;;1.00;;
6928;SDS011;3504;52.616;13.238;2024-02-23T00:19:40;1.23;;;1.13;;
6928;SDS011;3504;52.616;13.238;2024-02-23T00:24:41;3.03;;;1.23;;
6928;SDS011;3504;52.616;13.238;2024-02-23T00:29:41;1.20;;;1.10;;
6928;SDS011;3504;52.616;13.238;2024-02-23T00:34:42;1.30;;;1.20;;
6928;SDS011;3504;52.616;13.238;2024-02-23T00:39:43;1.20;;;1.10;;
6928;SDS011;3504;52.616;13.238;2024-02-23T00:44:43;1.10;;;1.00;;
6928;SDS011;3504;52.616;13.238;2024-02-23T00:49:44;2.40;;;1.43;;
6928;SDS011;3504;52.616;13.238;2024-02-23T00:54:45;1.20;;;1.10;;
6928;SDS011;3504;52.616;13.238;2024-02-23T00:59:45;1.30;;;1.20;;
6928;SDS011;3504;52.616;13.238;2024-02-23T01:04:48;2.77;;;1.40;;
6928;SDS011;3504;52.616;13.238;2024-02-23T01:09:49;1.77;;;1.30;;
6928;SDS011;3504;52.616;13.238;2024-02-23T01:14:50;1.37;;;1.27;;
6928;SDS011;3504;52.616;13.238;2024-02-23T01:19:53;1.67;;;1.57;;
6928;SDS011;3504;52.616;13.238;2024-02-23T01:24:53;1.90;;;1.23;;
6928;SDS011;3504;52.616;13.238;2024-02-23T01:29:54;2.00;;;1.30;;
6928;SDS011;3504;52.616;13.238;2024-02-23T01:34:54;2.27;;;1.50;;
6928;SDS011;3504;52.616;13.238;2024-02-23T01:39:55;2.53;;;1.53;;
6928;SDS011;3504;52.616;13.238;2024-02-23T01:44:55;1.40;;;1.30;;
6928;SDS011;3504;52.616;13.238;2024-02-23T01:49:59;1.63;;;1.50;;
6928;SDS011;3504;52.616;13.238;2024-02-23T01:55:00;1.57;;;1.20;;
6928;SDS011;3504;52.616;13.238;2024-02-23T02:00:01;1.37;;;1.00;;
6928;SDS011;3504;52.616;13.238;2024-02-23T02:05:04;2.10;;;1.40;;
6928;SDS011;3504;52.616;13.238;2024-02-23T02:10:08;1.87;;;1.40;;
6928;SDS011;3504;52.616;13.238;2024-02-23T02:15:09;1.80;;;0.93;;
6928;SDS011;3504;52.616;13.238;2024-02-23T02:20:12;1.27;;;0.90;;
6928;SDS011;3504;52.616;13.238;2024-02-23T02:25:13;1.53;;;0.90;;
6928;SDS011;3504;52.616;13.238;2024-02-23T02:30:15;1.47;;;1.00;;
6928;SDS011;3504;52.616;13.238;2024-02-23T02:35:16;2.40;;;0.80;;
6928;SDS011;3504;52.616;13.238;2024-02-23T02:40:16;1.90;;;0.93;;
6928;SDS011;3504;52.616;13.238;2024-02-23T02:45:17;1.47;;;0.80;;
6928;SDS011;3504;52.616;13.238;2024-02-23T02:50:17;2.03;;;0.90;;
6928;SDS011;3504;52.616;13.238;2024-02-23T02:55:18;0.70;;;0.70;;
6928;SDS011;3504;52.616;13.238;2024-02-23T03:00:18;1.20;;;1.07;;
6928;SDS011;3504;52.616;13.238;2024-02-23T03:05:19;1.03;;;0.83;;
6928;SDS011;3504;52.616;13.238;2024-02-23T03:10:20;1.47;;;0.80;;
6928;SDS011;3504;52.616;13.238;2024-02-23T03:15:20;1.80;;;0.80;;
6928;SDS011;3504;52.616;13.238;2024-02-23T03:20:21;2.40;;;1.00;;
6928;SDS011;3504;52.616;13.238;2024-02-23T03:25:21;2.17;;;0.77;;
6928;SDS011;3504;52.616;13.238;2024-02-23T03:30:22;3.37;;;0.90;;
6928;SDS011;3504;52.616;13.238;2024-02-23T03:35:22;1.60;;;0.90;;
6928;SDS011;3504;52.616;13.238;2024-02-23T03:40:23;3.30;;;0.83;;
6928;SDS011;3504;52.616;13.238;2024-02-23T03:45:23;2.30;;;0.77;;
6928;SDS011;3504;52.616;13.238;2024-02-23T03:50:24;1.37;;;0.70;;
6928;SDS011;3504;52.616;13.238;2024-02-23T03:55:25;1.03;;;0.70;;
6928;SDS011;3504;52.616;13.238;2024-02-23T04:00:25;0.77;;;0.70;;
6928;SDS011;3504;52.616;13.238;2024-02-23T04:05:26;2.03;;;0.57;;
6928;SDS011;3504;52.616;13.238;2024-02-23T04:10:26;1.83;;;0.73;;
6928;SDS011;3504;52.616;13.238;2024-02-23T04:15:27;0.70;;;0.70;;
6928;SDS011;3504;52.616;13.238;2024-02-23T04:20:27;3.67;;;0.90;;
6928;SDS011;3504;52.616;13.238;2024-02-23T04:25:28;2.43;;;0.70;;
6928;SDS011;3504;52.616;13.238;2024-02-23T04:30:29;3.50;;;0.70;;
6928;SDS011;3504;52.616;13.238;2024-02-23T04:35:29;3.47;;;1.00;;
6928;SDS011;3504;52.616;13.238;2024-02-23T04:40:30;0.70;;;0.70;;
6928;SDS011;3504;52.616;13.238;2024-02-23T04:45:30;3.60;;;0.90;;
6928;SDS011;3504;52.616;13.238;2024-02-23T04:50:30;3.60;;;0.80;;
6928;SDS011;3504;52.616;13.238;2024-02-23T04:55:31;1.90;;;0.50;;
6928;SDS011;3504;52.616;13.238;2024-02-23T05:00:31;0.40;;;0.40;;
6928;SDS011;3504;52.616;13.238;2024-02-23T05:05:35;0.90;;;0.50;;
6928;SDS011;3504;52.616;13.238;2024-02-23T05:10:35;0.60;;;0.60;;
6928;SDS011;3504;52.616;13.238;2024-02-23T05:15:36;0.60;;;0.60;;
6928;SDS011;3504;52.616;13.238;2024-02-23T05:20:36;1.03;;;0.50;;
6928;SDS011;3504;52.616;13.238;2024-02-23T05:25:37;0.50;;;0.40;;
6928;SDS011;3504;52.616;13.238;2024-02-23T05:30:40;1.10;;;0.60;;
6928;SDS011;3504;52.616;13.238;2024-02-23T05:35:40;1.03;;;0.60;;
6928;SDS011;3504;52.616;13.238;2024-02-23T05:40:41;0.50;;;0.50;;
6928;SDS011;3504;52.616;13.238;2024-02-23T05:45:41;0.97;;;0.60;;
6928;SDS011;3504;52.616;13.238;2024-02-23T05:50:43;0.90;;;0.60;;
6928;SDS011;3504;52.616;13.238;2024-02-23T05:55:44;0.93;;;0.70;;
6928;SDS011;3504;52.616;13.238;2024-02-23T06:00:44;1.57;;;0.53;;
6928;SDS011;3504;52.616;13.238;2024-02-23T06:05:45;0.50;;;0.50;;
6928;SDS011;3504;52.616;13.238;2024-02-23T06:10:45;2.43;;;0.60;;
6928;SDS011;3504;52.616;13.238;2024-02-23T06:15:46;0.83;;;0.67;;
6928;SDS011;3504;52.616;13.238;2024-02-23T06:20:46;3.17;;;0.90;;
6928;SDS011;3504;52.616;13.238;2024-02-23T06:25:47;1.00;;;0.90;;
6928;SDS011;3504;52.616;13.238;2024-02-23T06:30:48;1.37;;;1.00;;
6928;SDS011;3504;52.616;13.238;2024-02-23T06:35:48;1.27;;;0.83;;
6928;SDS011;3504;52.616;13.238;2024-02-23T06:40:49;2.50;;;0.80;;
6928;SDS011;3504;52.616;13.238;2024-02-23T06:45:50;1.37;;;1.00;;
6928;SDS011;3504;52.616;13.238;2024-02-23T06:50:51;2.77;;;1.00;;
6928;SDS011;3504;52.616;13.238;2024-02-23T06:55:51;2.23;;;1.00;;
6928;SDS011;3504;52.616;13.238;2024-02-23T07:00:52;2.00;;;0.93;;
6928;SDS011;3504;52.616;13.238;2024-02-23T07:05:52;1.50;;;1.07;;
6928;SDS011;3504;52.616;13.238;2024-02-23T07:10:53;2.07;;;0.80;;
6928;SDS011;3504;52.616;13.238;2024-02-23T07:15:53;2.10;;;1.10;;
6928;SDS011;3504;52.616;13.238;2024-02-23T07:20:55;1.10;;;1.00;;
6928;SDS011;3504;52.616;13.238;2024-02-23T07:25:56;1.23;;;0.90;;
6928;SDS011;3504;52.616;13.238;2024-02-23T07:30:57;1.47;;;1.00;;
6928;SDS011;3504;52.616;13.238;2024-02-23T07:35:57;2.00;;;1.30;;
6928;SDS011;3504;52.616;13.238;2024-02-23T07:40:58;0.97;;;0.97;;
6928;SDS011;3504;52.616;13.238;2024-02-23T07:45:59;1.53;;;0.90;;
6928;SDS011;3504;52.616;13.238;2024-02-23T07:51:04;1.10;;;1.00;;
6928;SDS011;3504;52.616;13.238;2024-02-23T07:56:07;1.53;;;1.00;;
6928;SDS011;3504;52.616;13.238;2024-02-23T08:01:07;1.03;;;0.90;;
6928;SDS011;3504;52.616;13.238;2024-02-23T08:06:08;0.80;;;0.80;;
6928;SDS011;3504;52.616;13.238;2024-02-23T08:11:12;0.83;;;0.80;;
6928;SDS011;3504;52.616;13.238;2024-02-23T08:16:15;1.07;;;0.97;;
6928;SDS011;3504;52.616;13.238;2024-02-23T08:21:17;1.43;;;0.87;;
6928;SDS011;3504;52.616;13.238;2024-02-23T08:26:21;1.93;;;0.97;;
6928;SDS011;3504;52.616;13.238;2024-02-23T08:31:22;1.37;;;0.90;;
6928;SDS011;3504;52.616;13.238;2024-02-23T08:36:22;1.03;;;0.87;;
6928;SDS011;3504;52.616;13.238;2024-02-23T08:41:23;1.27;;;0.80;;
6928;SDS011;3504;52.616;13.238;2024-02-23T08:46:23;4.40;;;1.10;;
6928;SDS011;3504;52.616;13.238;2024-02-23T08:51:24;0.70;;;0.70;;
6928;SDS011;3504;52.616;13.238;2024-02-23T08:56:24;0.70;;;0.70;;
6928;SDS011;3504;52.616;13.238;2024-02-23T09:01:25;1.13;;;0.77;;
6928;SDS011;3504;52.616;13.238;2024-02-23T09:06:26;1.40;;;0.87;;
6928;SDS011;3504;52.616;13.238;2024-02-23T09:11:26;2.43;;;1.03;;
6928;SDS011;3504;52.616;13.238;2024-02-23T09:16:27;1.50;;;0.60;;
6928;SDS011;3504;52.616;13.238;2024-02-23T09:21:27;1.13;;;0.73;;
6928;SDS011;3504;52.616;13.238;2024-02-23T09:26:28;0.80;;;0.70;;
6928;SDS011;3504;52.616;13.238;2024-02-23T09:31:28;1.40;;;0.97;;
6928;SDS011;3504;52.616;13.238;2024-02-23T09:36:29;3.90;;;0.80;;
6928;SDS011;3504;52.616;13.238;2024-02-23T09:41:30;1.70;;;0.80;;
6928;SDS011;3504;52.616;13.238;2024-02-23T09:46:31;0.90;;;0.73;;
6928;SDS011;3504;52.616;13.238;2024-02-23T09:51:33;0.83;;;0.60;;
6928;SDS011;3504;52.616;13.238;2024-02-23T09:56:35;3.40;;;0.80;;
6928;SDS011;3504;52.616;13.238;2024-02-23T10:01:37;0.70;;;0.60;;
6928;SDS011;3504;52.616;13.238;2024-02-23T10:06:38;1.93;;;0.70;;
6928;SDS011;3504;52.616;13.238;2024-02-23T10:11:38;2.20;;;0.90;;
6928;SDS011;3504;52.616;13.238;2024-02-23T10:16:39;1.73;;;0.80;;
6928;SDS011;3504;52.616;13.238;2024-02-23T10:21:40;1.53;;;1.00;;
6928;SDS011;3504;52.616;13.238;2024-02-23T10:26:40;1.57;;;0.70;;
6928;SDS011;3504;52.616;13.238;2024-02-23T10:31:41;1.17;;;0.70;;
6928;SDS011;3504;52.616;13.238;2024-02-23T10:36:42;2.93;;;1.10;;
6928;SDS011;3504;52.616;13.238;2024-02-23T10:41:51;2.43;;;0.90;;
6928;SDS011;3504;52.616;13.238;2024-02-23T10:47:01;1.53;;;0.90;;
6928;SDS011;3504;52.616;13.238;2024-02-23T10:52:03;2.00;;;1.00;;
6928;SDS011;3504;52.616;13.238;2024-02-23T10:57:04;1.90;;;1.10;;
6928;SDS011;3504;52.616;13.238;2024-02-23T11:02:06;1.60;;;1.00;;
6928;SDS011;3504;52.616;13.238;2024-02-23T11:07:12;0.87;;;0.70;;
6928;SDS011;3504;52.616;13.238;2024-02-23T11:12:21;1.33;;;0.90;;
6928;SDS011;3504;52.616;13.238;2024-02-23T11:17:26;1.70;;;0.77;;
6928;SDS011;3504;52.616;13.238;2024-02-23T11:22:30;2.50;;;1.10;;
6928;SDS011;3504;52.616;13.238;2024-02-23T11:27:33;2.40;;;1.00;;
6928;SDS011;3504;52.616;13.238;2024-02-23T11:32:36;2.53;;;0.60;;
6928;SDS011;3504;52.616;13.238;2024-02-23T11:43:09;1.60;;;0.60;;
6928;SDS011;3504;52.616;13.238;2024-02-23T11:48:10;2.20;;;0.80;;
6928;SDS011;3504;52.616;13.238;2024-02-23T11:53:11;2.43;;;0.80;;
6928;SDS011;3504;52.616;13.238;2024-02-23T11:58:11;0.97;;;0.80;;
6928;SDS011;3504;52.616;13.238;2024-02-23T12:03:13;2.83;;;1.20;;
6928;SDS011;3504;52.616;13.238;2024-02-23T12:08:13;2.87;;;0.97;;
6928;SDS011;3504;52.616;13.238;2024-02-23T12:13:14;2.00;;;0.73;;
6928;SDS011;3504;52.616;13.238;2024-02-23T12:18:14;3.87;;;1.07;;
6928;SDS011;3504;52.616;13.238;2024-02-23T12:23:15;2.53;;;1.00;;
6928;SDS011;3504;52.616;13.238;2024-02-23T12:28:17;4.07;;;1.00;;
6928;SDS011;3504;52.616;13.238;2024-02-23T12:33:18;2.63;;;2.00;;
6928;SDS011;3504;52.616;13.238;2024-02-23T12:38:21;1.43;;;0.80;;
6928;SDS011;3504;52.616;13.238;2024-02-23T12:43:22;3.03;;;1.00;;
6928;SDS011;3504;52.616;13.238;2024-02-23T12:48:24;3.47;;;1.00;;
6928;SDS011;3504;52.616;13.238;2024-02-23T12:53:37;2.07;;;0.90;;
6928;SDS011;3504;52.616;13.238;2024-02-23T12:58:41;4.47;;;0.90;;
6928;SDS011;3504;52.616;13.238;2024-02-23T13:03:42;2.23;;;0.90;;
6928;SDS011;3504;52.616;13.238;2024-02-23T13:08:43;2.00;;;0.83;;
6928;SDS011;3504;52.616;13.238;2024-02-23T13:13:43;4.53;;;1.00;;
6928;SDS011;3504;52.616;13.238;2024-02-23T13:18:44;3.73;;;1.30;;
6928;SDS011;3504;52.616;13.238;2024-02-23T13:23:46;1.37;;;0.67;;
6928;SDS011;3504;52.616;13.238;2024-02-23T13:28:47;2.63;;;1.00;;
6928;SDS011;3504;52.616;13.238;2024-02-23T13:33:47;2.40;;;1.07;;
6928;SDS011;3504;52.616;13.238;2024-02-23T13:38:48;2.73;;;0.80;;
6928;SDS011;3504;52.616;13.238;2024-02-23T13:43:51;2.57;;;0.90;;
6928;SDS011;3504;52.616;13.238;2024-02-23T13:49:02;5.37;;;1.00;;
6928;SDS011;3504;52.616;13.238;2024-02-23T13:54:07;1.67;;;1.17;;
6928;SDS011;3504;52.616;13.238;2024-02-23T13:59:08;1.17;;;0.97;;
6928;SDS011;3504;52.616;13.238;2024-02-23T14:04:08;3.97;;;1.10;;
6928;SDS011;3504;52.616;13.238;2024-02-23T14:09:09;2.87;;;1.10;;
6928;SDS011;3504;52.616;13.238;2024-02-23T14:14:09;1.63;;;0.97;;
6928;SDS011;3504;52.616;13.238;2024-02-23T14:19:10;1.97;;;1.00;;
6928;SDS011;3504;52.616;13.238;2024-02-23T14:24:10;2.47;;;1.10;;
6928;SDS011;3504;52.616;13.238;2024-02-23T14:29:11;1.80;;;0.90;;
6928;SDS011;3504;52.616;13.238;2024-02-23T14:34:12;2.97;;;0.90;;
6928;SDS011;3504;52.616;13.238;2024-02-23T14:39:12;1.40;;;1.00;;
6928;SDS011;3504;52.616;13.238;2024-02-23T14:44:13;1.87;;;0.70;;
6928;SDS011;3504;52.616;13.238;2024-02-23T14:49:13;2.73;;;1.20;;
6928;SDS011;3504;52.616;13.238;2024-02-23T14:54:14;4.47;;;1.00;;
6928;SDS011;3504;52.616;13.238;2024-02-23T14:59:15;1.93;;;0.90;;
6928;SDS011;3504;52.616;13.238;2024-02-23T15:04:15;3.63;;;1.20;;
6928;SDS011;3504;52.616;13.238;2024-02-23T15:09:15;3.30;;;1.10;;
6928;SDS011;3504;52.616;13.238;2024-02-23T15:14:16;5.03;;;1.30;;
6928;SDS011;3504;52.616;13.238;2024-02-23T15:19:17;2.50;;;1.20;;
6928;SDS011;3504;52.616;13.238;2024-02-23T15:24:17;1.87;;;0.90;;
6928;SDS011;3504;52.616;13.238;2024-02-23T15:29:19;1.53;;;1.10;;
6928;SDS011;3504;52.616;13.238;2024-02-23T15:34:20;2.77;;;1.10;;
6928;SDS011;3504;52.616;13.238;2024-02-23T15:39:21;3.03;;;1.10;;
6928;SDS011;3504;52.616;13.238;2024-02-23T15:44:22;3.67;;;1.10;;
6928;SDS011;3504;52.616;13.238;2024-02-23T15:49:22;4.23;;;1.27;;
6928;SDS011;3504;52.616;13.238;2024-02-23T15:54:24;3.73;;;1.10;;
6928;SDS011;3504;52.616;13.238;2024-02-23T15:59:27;3.03;;;1.27;;
6928;SDS011;3504;52.616;13.238;2024-02-23T16:04:29;2.83;;;1.27;;
6928;SDS011;3504;52.616;13.238;2024-02-23T16:09:30;4.13;;;1.27;;
6928;SDS011;3504;52.616;13.238;2024-02-23T16:14:30;2.30;;;1.30;;
6928;SDS011;3504;52.616;13.238;2024-02-23T16:19:31;2.43;;;1.47;;
6928;SDS011;3504;52.616;13.238;2024-02-23T16:24:31;3.60;;;1.43;;
6928;SDS011;3504;52.616;13.238;2024-02-23T16:29:32;6.03;;;1.27;;
6928;SDS011;3504;52.616;13.238;2024-02-23T16:34:32;4.57;;;1.40;;
6928;SDS011;3504;52.616;13.238;2024-02-23T16:39:35;2.37;;;1.47;;
6928;SDS011;3504;52.616;13.238;2024-02-23T16:44:36;2.43;;;1.90;;
6928;SDS011;3504;52.616;13.238;2024-02-23T16:49:36;5.87;;;2.00;;
6928;SDS011;3504;52.616;13.238;2024-02-23T16:54:37;3.93;;;2.43;;
6928;SDS011;3504;52.616;13.238;2024-02-23T16:59:37;2.83;;;2.13;;
6928;SDS011;3504;52.616;13.238;2024-02-23T17:04:38;4.83;;;2.83;;
6928;SDS011;3504;52.616;13.238;2024-02-23T17:09:38;4.97;;;2.37;;
6928;SDS011;3504;52.616;13.238;2024-02-23T17:14:39;2.97;;;1.80;;
6928;SDS011;3504;52.616;13.238;2024-02-23T17:19:39;3.47;;;2.10;;
6928;SDS011;3504;52.616;13.238;2024-02-23T17:24:40;5.40;;;2.80;;
6928;SDS011;3504;52.616;13.238;2024-02-23T17:29:41;3.97;;;2.70;;
6928;SDS011;3504;52.616;13.238;2024-02-23T17:34:41;5.23;;;2.67;;
6928;SDS011;3504;52.616;13.238;2024-02-23T17:39:42;4.43;;;2.17;;
6928;SDS011;3504;52.616;13.238;2024-02-23T17:44:42;7.37;;;2.07;;
6928;SDS011;3504;52.616;13.238;2024-02-23T17:49:43;4.67;;;2.60;;
6928;SDS011;3504;52.616;13.238;2024-02-23T17:54:43;5.37;;;2.80;;
6928;SDS011;3504;52.616;13.238;2024-02-23T17:59:44;5.00;;;2.70;;
6928;SDS011;3504;52.616;13.238;2024-02-23T18:04:44;5.73;;;3.23;;
6928;SDS011;3504;52.616;13.238;2024-02-23T18:09:49;8.13;;;4.57;;
6928;SDS011;3504;52.616;13.238;2024-02-23T18:14:49;8.17;;;2.97;;
6928;SDS011;3504;52.616;13.238;2024-02-23T18:19:50;5.23;;;3.03;;
6928;SDS011;3504;52.616;13.238;2024-02-23T18:24:51;6.07;;;3.13;;
6928;SDS011;3504;52.616;13.238;2024-02-23T18:29:51;6.37;;;2.90;;
6928;SDS011;3504;52.616;13.238;2024-02-23T18:34:52;3.47;;;2.40;;
6928;SDS011;3504;52.616;13.238;2024-02-23T18:39:52;3.73;;;2.70;;
6928;SDS011;3504;52.616;13.238;2024-02-23T18:44:54;2.77;;;2.27;;
6928;SDS011;3504;52.616;13.238;2024-02-23T18:49:56;6.50;;;2.57;;
6928;SDS011;3504;52.616;13.238;2024-02-23T18:54:57;4.97;;;2.60;;
6928;SDS011;3504;52.616;13.238;2024-02-23T18:59:58;8.20;;;3.80;;
6928;SDS011;3504;52.616;13.238;2024-02-23T19:04:59;5.00;;;3.40;;
6928;SDS011;3504;52.616;13.238;2024-02-23T19:09:59;5.00;;;2.80;;
6928;SDS011;3504;52.616;13.238;2024-02-23T19:15:00;5.53;;;3.13;;
6928;SDS011;3504;52.616;13.238;2024-02-23T19:20:00;5.20;;;3.40;;
6928;SDS011;3504;52.616;13.238;2024-02-23T19:25:01;5.23;;;3.37;;
6928;SDS011;3504;52.616;13.238;2024-02-23T19:30:01;6.73;;;3.67;;
6928;SDS011;3504;52.616;13.238;2024-02-23T19:35:03;5.60;;;3.50;;
6928;SDS011;3504;52.616;13.238;2024-02-23T19:40:04;6.17;;;3.20;;
6928;SDS011;3504;52.616;13.238;2024-02-23T19:45:07;5.77;;;3.60;;
6928;SDS011;3504;52.616;13.238;2024-02-23T19:50:08;6.47;;;3.70;;
6928;SDS011;3504;52.616;13.238;2024-02-23T19:55:09;5.37;;;3.47;;
6928;SDS011;3504;52.616;13.238;2024-02-23T20:00:09;5.73;;;3.23;;
6928;SDS011;3504;52.616;13.238;2024-02-23T20:05:11;7.77;;;3.60;;
6928;SDS011;3504;52.616;13.238;2024-02-23T20:10:11;7.00;;;3.50;;
6928;SDS011;3504;52.616;13.238;2024-02-23T20:15:16;5.57;;;3.00;;
6928;SDS011;3504;52.616;13.238;2024-02-23T20:20:17;7.67;;;3.40;;
6928;SDS011;3504;52.616;13.238;2024-02-23T20:25:18;4.60;;;2.87;;
6928;SDS011;3504;52.616;13.238;2024-02-23T20:30:18;5.93;;;3.10;;
6928;SDS011;3504;52.616;13.238;2024-02-23T20:35:19;5.33;;;3.40;;
6928;SDS011;3504;52.616;13.238;2024-02-23T20:40:19;5.87;;;3.40;;
6928;SDS011;3504;52.616;13.238;2024-02-23T20:45:20;4.53;;;3.10;;
6928;SDS011;3504;52.616;13.238;2024-02-23T20:50:22;4.47;;;2.70;;
6928;SDS011;3504;52.616;13.238;2024-02-23T20:55:23;6.33;;;4.00;;
6928;SDS011;3504;52.616;13.238;2024-02-23T21:00:23;7.53;;;4.10;;
6928;SDS011;3504;52.616;13.238;2024-02-23T21:05:24;6.97;;;3.13;;
6928;SDS011;3504;52.616;13.238;2024-02-23T21:10:24;9.33;;;4.33;;
6928;SDS011;3504;52.616;13.238;2024-02-23T21:15:25;4.27;;;3.20;;
6928;SDS011;3504;52.616;13.238;2024-02-23T21:20:25;6.77;;;3.20;;
6928;SDS011;3504;52.616;13.238;2024-02-23T21:25:26;9.87;;;3.40;;
6928;SDS011;3504;52.616;13.238;2024-02-23T21:30:26;7.40;;;3.70;;
6928;SDS011;3504;52.616;13.238;2024-02-23T21:35:27;5.93;;;3.57;;
6928;SDS011;3504;52.616;13.238;2024-02-23T21:40:28;6.00;;;3.10;;
6928;SDS011;3504;52.616;13.238;2024-02-23T21:45:28;6.73;;;3.67;;
6928;SDS011;3504;52.616;13.238;2024-02-23T21:50:29;6.87;;;3.60;;
6928;SDS011;3504;52.616;13.238;2024-02-23T21:55:29;5.30;;;3.07;;
6928;SDS011;3504;52.616;13.238;2024-02-23T22:00:30;4.57;;;3.07;;
6928;SDS011;3504;52.616;13.238;2024-02-23T22:05:30;3.47;;;2.80;;
6928;SDS011;3504;52.616;13.238;2024-02-23T22:10:31;7.93;;;5.10;;
6928;SDS011;3504;52.616;13.238;2024-02-23T22:15:32;11.13;;;5.50;;
6928;SDS011;3504;52.616;13.238;2024-02-23T22:20:32;7.67;;;4.90;;
6928;SDS011;3504;52.616;13.238;2024-02-23T22:25:34;6.70;;;3.77;;
6928;SDS011;3504;52.616;13.238;2024-02-23T22:30:34;6.63;;;3.73;;
6928;SDS011;3504;52.616;13.238;2024-02-23T22:35:35;5.80;;;3.60;;
6928;SDS011;3504;52.616;13.238;2024-02-23T22:40:35;7.57;;;4.20;;
6928;SDS011;3504;52.616;13.238;2024-02-23T22:45:36;9.70;;;4.60;;
6928;SDS011;3504;52.616;13.238;2024-02-23T22:50:39;10.77;;;3.73;;
6928;SDS011;3504;52.616;13.238;2024-02-23T22:55:39;5.33;;;3.40;;
6928;SDS011;3504;52.616;13.238;2024-02-23T23:00:40;5.23;;;3.77;;
6928;SDS011;3504;52.616;13.238;2024-02-23T23:05:44;6.07;;;3.40;;
6928;SDS011;3504;52.616;13.238;2024-02-23T23:10:45;6.90;;;3.70;;
6928;SDS011;3504;52.616;13.238;2024-02-23T23:15:45;8.40;;;4.93;;
6928;SDS011;3504;52.616;13.238;2024-02-23T23:20:46;9.70;;;4.50;;
6928;SDS011;3504;52.616;13.238;2024-02-23T23:25:46;6.90;;;4.10;;
6928;SDS011;3504;52.616;13.238;2024-02-23T23:30:47;5.80;;;3.30;;
6928;SDS011;3504;52.616;13.238;2024-02-23T23:35:52;7.17;;;3.73;;
6928;SDS011;3504;52.616;13.238;2024-02-23T23:40:52;7.00;;;3.93;;
6928;SDS011;3504;52.616;13.238;2024-02-23T23:45:53;5.43;;;3.40;;
6928;SDS011;3504;52.616;13.238;2024-02-23T23:50:53;6.10;;;3.63;;
6928;SDS011;3504;52.616;13.238;2024-02-23T23:55:54;7.47;;;3.53;;
